• Join FlightAware (Why Join?)
  • Login
  • US Flag 
07:38PM EDT


 

Airport Tracker/Info


-or-


 

Live Flight TrackerFlight Track Log ✈ EJA929 ✈ 24-May-2013 ✈ KCON - KHPN

Flight Track Log - Related Links

Times and Time Zones

All times are in EDT time to prevent confusion due to time zone crossing. See the EJA929 flight status page for this flight to view local times or setup timezone preferences in your user account.

Time Position Orientation Groundspeed Altitude Reporting Facility
EDT Latitude Longitude Course Direction KTS MPH feet Rate Location/Type
11:04AM 43.1833 -71.5000 216° Southwest 173 199 1,000  Level KA90
11:05AM 43.1667 -71.5167 216° Southwest 223 257 3,000 3,960 Climbing KA90
11:06AM 43.1625 -71.6489 268° West 224 258 9,000 3,360 Climbing Boston Center
11:07AM 43.1486 -71.7372 258° West 252 290 10,900 2,100 Climbing Boston Center
11:08AM 43.1242 -71.8683 256° West 302 348 13,200 1,980 Climbing Boston Center
11:09AM 43.1019 -71.9794 255° West 331 381 15,300 1,260 Climbing Boston Center
11:10AM 43.0731 -72.1417 256° West 364 419 16,000 300 Climbing Boston Center
11:11AM 43.0442 -72.2894 255° West 397 457 16,000  Level Boston Center
11:12AM 43.0194 -72.4344 257° West 397 457 16,000  Level Boston Center
11:13AM 42.9900 -72.5819 255° West 397 457 16,000  Level Boston Center
11:14AM 42.9628 -72.7267 256° West 397 457 16,100  Climbing Boston Center
11:15AM 42.9353 -72.8683 255° West 397 457 16,000  Descending Boston Center
11:16AM 42.9033 -73.0211 254° West 397 457 16,100  Climbing Boston Center
11:17AM 42.8775 -73.1511 255° West 397 457 16,100 -300 Level Boston Center
11:18AM 42.8328 -73.2950 247° West 390 449 15,500 -780 Descending Boston Center
11:19AM 42.7508 -73.3675 213° Southwest 375 432 14,600 -720 Descending Boston Center
11:20AM 42.6461 -73.4392 207° Southwest 387 445 14,100 -300 Descending Boston Center
11:21AM 42.5517 -73.5025 206° Southwest 387 445 14,100  Level Boston Center
11:22AM 42.4531 -73.5683 206° Southwest 387 445 14,100 -180 Level Boston Center
11:23AM 42.3567 -73.6342 207° Southwest 387 445 13,800 -840 Descending Boston Center
11:24AM 42.2683 -73.6969 208° Southwest 387 445 12,500 -900 Descending Boston Center
11:25AM 42.1633 -73.7650 206° Southwest 379 436 12,100 -240 Descending Boston Center
11:26AM 42.0753 -73.8133 202° Southwest 374 430 12,100 -60 Level Boston Center
11:27AM 41.9689 -73.8167 181° South 379 436 12,000 -600 Descending Boston Center
11:29AM 41.8522 -73.8197 181° South 381 438 10,900 -960 Descending Boston Center
11:30AM 41.7356 -73.8228 181° South 381 438 10,000 -540 Descending Boston Center
11:31AM 41.6394 -73.8317 184° South 342 394 9,900 -660 Descending Boston Center
11:31AM 41.5833 -73.8333 181° South 259 298 8,900 -1,380 Descending New York TRACON
11:32AM 41.5167 -73.8667 201° Southwest 272 313 7,500 -1,500 Descending New York TRACON
11:33AM 41.4500 -73.8500 169° South 275 316 5,900 -1,740 Descending New York TRACON
11:34AM 41.4000 -73.7833 135° Southeast 269 310 4,100 -1,500 Descending New York TRACON
11:35AM 41.3333 -73.7167 143° Southeast 276 318 3,000 -600 Descending New York TRACON
11:36AM 41.2833 -73.6500 135° Southeast 277 319 3,000  Level New York TRACON
11:37AM 41.2000 -73.6167 163° South 282 325 3,000 -240 Level New York TRACON
11:38AM 41.1333 -73.5833 159° South 226 260 2,600 -540 Descending New York TRACON
11:39AM 41.0833 -73.5667 166° South 215 247 2,000 -360 Descending New York TRACON
11:40AM 41.0333 -73.5833 194° South 219 252 2,000  Level New York TRACON
11:41AM 40.9833 -73.6167 207° Southwest 175 201 2,000  Level New York TRACON